Time;durP1;ratioP1;P1;durP2;ratioP2;P2;SDS_P1;SDS_P2;PMS_P1;PMS_P2;Temp;Humidity;BMP_temperature;BMP_pressure;BME280_temperature;BME280_humidity;BME280_pressure;Samples;Min_cycle;Max_cycle;Signal;HPM_P1;HPM_P2
2023/04/07 00:01:07;;;;;;;5.70;4.22;;;;;;;10.17;45.10;99316.22;4417858;32;32741;-65
2023/04/07 00:03:37;;;;;;;4.18;2.92;;;;;;;10.18;44.84;99317.09;4419669;32;33848;-67
2023/04/07 00:06:05;;;;;;;7.47;3.70;;;;;;;10.30;44.44;99316.09;4418124;32;33809;-65
2023/04/07 00:08:33;;;;;;;20.80;4.05;;;;;;;10.14;45.00;99299.56;4422808;32;33310;-68
2023/04/07 00:11:00;;;;;;;4.85;3.58;;;;;;;10.14;45.02;99304.91;4420516;32;32713;-64
2023/04/07 00:13:28;;;;;;;8.63;5.97;;;;;;;10.40;44.09;99308.19;4419591;32;34911;-64
2023/04/07 00:15:57;;;;;;;5.35;4.53;;;;;;;10.45;44.09;99314.03;4419502;32;35661;-64
2023/04/07 00:18:25;;;;;;;6.60;4.12;;;;;;;10.30;44.19;99310.75;4419708;32;33414;-62
2023/04/07 00:20:52;;;;;;;6.53;5.18;;;;;;;10.54;43.75;99307.09;4420958;32;33782;-66
2023/04/07 00:23:20;;;;;;;8.98;5.82;;;;;;;10.63;43.20;99309.88;4421103;32;33966;-64
2023/04/07 00:25:48;;;;;;;11.07;6.32;;;;;;;10.62;43.52;99309.97;4418875;32;35113;-66
2023/04/07 00:28:15;;;;;;;6.85;4.72;;;;;;;10.53;43.54;99306.25;4416829;32;33491;-66
2023/04/07 00:30:43;;;;;;;6.68;5.65;;;;;;;10.71;42.86;99301.19;4419132;32;33737;-66
2023/04/07 00:33:10;;;;;;;10.57;6.03;;;;;;;10.61;43.18;99303.78;4420234;32;33804;-63
2023/04/07 00:35:38;;;;;;;17.23;7.70;;;;;;;10.73;42.80;99297.41;4419432;32;34309;-63
2023/04/07 00:38:06;;;;;;;6.15;4.70;;;;;;;10.63;43.06;99303.66;4422561;32;33528;-62
2023/04/07 00:40:34;;;;;;;13.85;4.95;;;;;;;10.59;43.10;99296.84;4413170;32;35213;-65
2023/04/07 00:43:01;;;;;;;7.25;5.50;;;;;;;10.69;42.57;99297.81;4417078;32;33905;-63
2023/04/07 00:45:29;;;;;;;7.45;5.28;;;;;;;10.54;42.99;99291.03;4416247;32;35258;-61
2023/04/07 00:47:57;;;;;;;12.23;6.35;;;;;;;10.36;43.20;99291.53;4414794;32;33542;-61
2023/04/07 00:50:25;;;;;;;10.38;6.78;;;;;;;10.55;43.08;99287.38;4426262;32;34412;-61
2023/04/07 00:52:53;;;;;;;8.38;6.12;;;;;;;10.44;43.42;99285.59;4417444;32;34058;-62
2023/04/07 00:55:21;;;;;;;8.32;5.80;;;;;;;10.57;43.08;99293.47;4417954;32;33773;-61
2023/04/07 00:57:50;;;;;;;8.07;6.05;;;;;;;10.49;43.14;99284.22;4416756;32;32306;-61
2023/04/07 01:00:18;;;;;;;11.35;7.32;;;;;;;10.61;43.08;99282.38;4415223;32;33274;-60
2023/04/07 01:03:08;;;;;;;5.97;4.85;;;;;;;10.28;44.22;99279.78;4421387;32;35290;-62
2023/04/07 01:05:52;;;;;;;10.32;6.87;;;;;;;10.52;42.85;99288.47;4409714;32;34753;-63
2023/04/07 01:08:25;;;;;;;15.55;6.07;;;;;;;10.32;43.06;99276.72;4415414;32;33540;-61
2023/04/07 01:11:16;;;;;;;5.37;3.35;;;;;;;10.60;42.43;99275.31;4413392;32;33580;-62
2023/04/07 01:13:51;;;;;;;7.30;4.00;;;;;;;10.66;42.31;99272.16;4410406;32;34953;-62
2023/04/07 01:16:27;;;;;;;10.02;6.22;;;;;;;10.58;42.59;99274.59;4410680;32;34552;-63
2023/04/07 01:19:00;;;;;;;7.50;5.15;;;;;;;10.76;42.22;99264.19;4414814;32;34492;-63
2023/04/07 01:21:27;;;;;;;8.77;5.50;;;;;;;10.62;42.26;99261.81;4420650;32;32647;-67
2023/04/07 01:24:49;;;;;;;6.20;5.28;;;;;;;10.12;44.08;99274.78;4415739;32;34156;-63
2023/04/07 01:27:30;;;;;;;13.25;5.10;;;;;;;10.44;43.00;99265.03;4393269;32;33954;-66
2023/04/07 01:30:00;;;;;;;8.55;4.75;;;;;;;10.53;42.78;99268.78;4414376;32;32271;-63
2023/04/07 01:32:29;;;;;;;8.60;4.80;;;;;;;10.54;42.75;99265.12;4414601;32;33501;-64
2023/04/07 01:34:57;;;;;;;15.43;7.25;;;;;;;10.39;43.29;99263.69;4416204;32;35216;-63
2023/04/07 01:37:26;;;;;;;20.48;5.90;;;;;;;10.48;43.26;99262.94;4413505;32;35231;-63
2023/04/07 01:39:53;;;;;;;4.87;4.15;;;;;;;10.76;42.30;99260.69;4412425;32;34102;-63
2023/04/07 01:42:21;;;;;;;8.18;5.10;;;;;;;10.48;42.87;99254.91;4426945;32;33768;-65
2023/04/07 01:44:49;;;;;;;7.12;5.72;;;;;;;10.35;42.87;99263.09;4416642;32;34514;-63
2023/04/07 01:47:17;;;;;;;11.30;6.25;;;;;;;10.47;42.58;99255.91;4417599;32;34274;-62
2023/04/07 01:49:46;;;;;;;4.87;4.12;;;;;;;10.57;42.37;99251.50;4417993;32;32323;-63
2023/04/07 01:52:14;;;;;;;5.15;4.18;;;;;;;9.61;45.24;99257.41;4419260;32;34045;-63
2023/04/07 01:54:42;;;;;;;6.82;4.22;;;;;;;9.99;43.67;99258.88;4414428;32;34282;-61
2023/04/07 01:57:09;;;;;;;8.43;5.40;;;;;;;10.19;43.14;99258.09;4418524;32;34030;-66
2023/04/07 01:59:37;;;;;;;11.05;5.82;;;;;;;10.09;43.57;99253.63;4419929;32;33535;-61
2023/04/07 02:02:04;;;;;;;8.98;5.90;;;;;;;10.19;43.02;99265.28;4424591;32;34712;-61
2023/04/07 02:04:51;;;;;;;5.28;3.37;;;;;;;10.06;43.01;99269.94;4417383;32;33690;-61
2023/04/07 02:07:24;;;;;;;8.80;5.15;;;;;;;10.13;43.13;99260.44;4420435;32;35255;-66
2023/04/07 02:09:55;;;;;;;10.35;3.08;;;;;;;10.38;42.74;99262.00;4418555;32;34525;-61
2023/04/07 02:12:26;;;;;;;8.98;7.07;;;;;;;10.18;43.28;99263.59;4418597;32;33890;-61
2023/04/07 02:14:55;;;;;;;10.68;6.62;;;;;;;10.34;43.04;99258.72;4416857;32;33832;-60
2023/04/07 02:17:23;;;;;;;9.25;7.65;;;;;;;10.40;42.77;99260.03;4420510;32;33943;-63
2023/04/07 02:19:52;;;;;;;12.18;6.40;;;;;;;10.23;42.85;99258.72;4417485;32;34564;-61
2023/04/07 02:22:19;;;;;;;10.60;6.70;;;;;;;10.25;43.42;99265.62;4418619;32;33671;-63
2023/04/07 02:24:47;;;;;;;12.50;7.30;;;;;;;9.88;43.85;99262.37;4411194;32;34083;-61
2023/04/07 02:27:14;;;;;;;7.97;6.05;;;;;;;9.84;44.49;99258.25;4412175;32;34012;-61
2023/04/07 02:29:42;;;;;;;7.45;5.55;;;;;;;10.01;44.01;99259.59;4419131;32;34787;-61
2023/04/07 02:32:10;;;;;;;3.55;2.95;;;;;;;8.95;46.99;99253.63;4424429;32;33643;-61
2023/04/07 02:34:37;;;;;;;5.78;4.15;;;;;;;9.95;44.20;99254.72;4419130;32;34991;-63
2023/04/07 02:37:06;;;;;;;6.65;4.45;;;;;;;9.73;45.45;99258.28;4417620;32;34063;-62
2023/04/07 02:39:34;;;;;;;7.40;6.18;;;;;;;9.48;45.81;99257.53;4423090;32;33250;-64
2023/04/07 02:42:01;;;;;;;4.53;3.92;;;;;;;9.63;45.82;99263.50;4421398;32;33408;-62
2023/04/07 02:44:30;;;;;;;9.15;6.72;;;;;;;9.68;45.64;99255.09;4417990;32;34884;-65
2023/04/07 02:46:57;;;;;;;13.30;6.05;;;;;;;8.96;47.51;99261.53;4418379;32;35065;-62
2023/04/07 02:49:25;;;;;;;6.15;5.15;;;;;;;9.67;45.85;99256.94;4415831;32;34481;-62
2023/04/07 02:51:52;;;;;;;3.80;2.85;;;;;;;9.64;45.90;99259.84;4420802;32;34975;-62
2023/04/07 02:54:20;;;;;;;11.80;5.07;;;;;;;9.89;45.57;99256.09;4423572;32;35653;-62
2023/04/07 02:56:47;;;;;;;8.82;6.47;;;;;;;10.02;44.96;99263.97;4424166;32;32915;-62
2023/04/07 02:59:15;;;;;;;5.65;3.67;;;;;;;10.06;44.99;99253.87;4417739;32;33278;-67
2023/04/07 03:01:43;;;;;;;3.78;2.62;;;;;;;9.56;46.71;99255.09;4419944;32;34989;-66
2023/04/07 03:04:11;;;;;;;8.40;6.25;;;;;;;9.75;46.81;99261.66;4431063;32;34081;-62
2023/04/07 03:06:39;;;;;;;8.38;5.80;;;;;;;9.77;46.00;99257.06;4418729;32;35190;-65
2023/04/07 03:09:06;;;;;;;6.60;5.15;;;;;;;9.30;47.80;99262.47;4415652;32;33499;-62
2023/04/07 03:11:34;;;;;;;7.55;6.47;;;;;;;9.74;46.23;99263.50;4424267;32;34499;-64
2023/04/07 03:14:02;;;;;;;7.18;5.05;;;;;;;9.83;45.74;99261.91;4422181;32;34865;-64
2023/04/07 03:16:30;;;;;;;11.02;4.75;;;;;;;9.64;46.65;99259.00;4419854;32;34968;-62
2023/04/07 03:18:58;;;;;;;6.40;4.68;;;;;;;9.18;48.41;99259.88;4417410;32;33531;-62
2023/04/07 03:21:27;;;;;;;6.72;4.28;;;;;;;9.70;46.68;99248.69;4409936;32;34706;-61
2023/04/07 03:23:55;;;;;;;6.15;4.18;;;;;;;9.52;47.15;99245.63;4418267;32;33687;-62
2023/04/07 03:26:22;;;;;;;7.53;4.40;;;;;;;9.74;46.59;99262.66;4420172;32;34523;-63
2023/04/07 03:28:50;;;;;;;7.12;3.70;;;;;;;9.68;46.37;99247.94;4417893;32;33660;-61
2023/04/07 03:31:19;;;;;;;6.05;4.82;;;;;;;10.00;45.76;99257.91;4417197;32;34684;-62
2023/04/07 03:33:48;;;;;;;9.35;5.53;;;;;;;9.40;48.34;99257.25;4418445;32;33675;-67
2023/04/07 03:36:17;;;;;;;15.77;6.20;;;;;;;10.06;45.79;99251.22;4415877;32;34285;-63
2023/04/07 03:38:46;;;;;;;6.10;4.95;;;;;;;9.54;48.15;99249.03;4426676;32;32534;-63
2023/04/07 03:41:14;;;;;;;11.70;5.97;;;;;;;9.39;47.77;99255.56;4417445;32;34695;-63
2023/04/07 03:43:42;;;;;;;4.75;3.22;;;;;;;10.02;46.19;99254.13;4413335;32;33878;-69
2023/04/07 03:46:09;;;;;;;6.93;4.62;;;;;;;10.19;45.64;99247.41;4419899;32;35142;-62
2023/04/07 03:48:37;;;;;;;8.90;5.60;;;;;;;10.27;45.16;99246.81;4415811;32;33688;-62
2023/04/07 03:51:05;;;;;;;8.02;5.43;;;;;;;10.10;46.00;99244.63;4417602;32;33532;-62
2023/04/07 03:53:33;;;;;;;14.20;6.45;;;;;;;10.30;45.03;99235.88;4418912;32;33542;-62
2023/04/07 03:56:01;;;;;;;10.90;6.70;;;;;;;10.23;45.18;99240.84;4418070;32;32517;-63
2023/04/07 03:58:31;;;;;;;9.07;4.22;;;;;;;10.43;44.61;99239.25;4428614;32;94007;-62
2023/04/07 04:00:59;;;;;;;4.43;3.70;;;;;;;9.90;45.79;99255.09;4416835;32;34539;-61
2023/04/07 04:03:27;;;;;;;5.32;4.03;;;;;;;9.70;46.44;99253.19;4417996;32;33869;-63
2023/04/07 04:05:55;;;;;;;7.55;3.37;;;;;;;9.78;46.03;99256.91;4414957;32;33948;-64
2023/04/07 04:08:25;;;;;;;10.63;7.10;;;;;;;9.46;46.69;99251.44;4418839;32;33508;-60
2023/04/07 04:10:53;;;;;;;5.57;4.18;;;;;;;9.68;46.26;99255.09;4418434;32;33800;-64
2023/04/07 04:13:23;;;;;;;9.45;5.75;;;;;;;9.73;46.36;99255.59;4411559;32;35249;-61
2023/04/07 04:15:51;;;;;;;5.85;4.20;;;;;;;10.14;45.45;99262.13;4416101;32;33114;-62
2023/04/07 04:18:19;;;;;;;5.28;3.70;;;;;;;10.21;45.29;99260.69;4418581;32;33611;-61
2023/04/07 04:20:47;;;;;;;5.57;3.83;;;;;;;9.93;46.07;99272.72;4416206;32;33921;-61
2023/04/07 04:23:15;;;;;;;4.03;3.47;;;;;;;9.70;46.72;99262.03;4425797;32;34082;-60
2023/04/07 04:25:43;;;;;;;5.43;3.67;;;;;;;10.24;45.25;99271.09;4416269;32;34187;-63
2023/04/07 04:28:11;;;;;;;12.73;6.50;;;;;;;9.48;47.99;99264.69;4405819;32;33240;-64
2023/04/07 04:30:39;;;;;;;4.70;3.83;;;;;;;9.71;46.25;99265.56;4417044;32;33903;-64
2023/04/07 04:33:06;;;;;;;4.37;3.87;;;;;;;9.86;46.25;99272.38;4417928;32;33726;-64
2023/04/07 04:35:35;;;;;;;3.72;2.90;;;;;;;9.71;47.45;99279.75;4417782;32;34859;-63
2023/04/07 04:38:03;;;;;;;6.12;4.55;;;;;;;9.83;46.48;99269.09;4416249;32;33589;-64
2023/04/07 04:40:31;;;;;;;8.60;3.90;;;;;;;10.23;45.62;99275.59;4417431;32;33356;-64
2023/04/07 04:42:58;;;;;;;9.45;5.90;;;;;;;10.34;45.09;99274.78;4434042;32;33673;-64
2023/04/07 04:45:26;;;;;;;10.18;8.07;;;;;;;10.42;44.46;99277.66;4421835;32;34452;-65
2023/04/07 04:47:55;;;;;;;8.77;4.87;;;;;;;10.44;44.66;99277.56;4418552;32;33465;-65
2023/04/07 04:50:22;;;;;;;9.05;4.85;;;;;;;10.58;44.49;99279.09;4413985;32;34942;-66
2023/04/07 04:52:50;;;;;;;6.22;4.03;;;;;;;9.85;45.82;99284.00;4418119;32;33830;-64
2023/04/07 04:55:18;;;;;;;7.37;4.85;;;;;;;9.50;47.45;99279.63;4415987;32;34531;-63
2023/04/07 04:57:46;;;;;;;9.10;7.25;;;;;;;9.79;46.84;99284.50;4417851;32;33239;-64
2023/04/07 05:00:14;;;;;;;7.25;4.45;;;;;;;10.00;45.86;99290.81;4414822;32;33564;-65
2023/04/07 05:02:42;;;;;;;6.78;4.95;;;;;;;10.30;44.84;99289.34;4415963;32;34164;-65
2023/04/07 05:05:10;;;;;;;11.20;5.57;;;;;;;9.83;47.18;99290.47;4415264;32;33895;-63
2023/04/07 05:07:39;;;;;;;4.62;3.60;;;;;;;9.54;47.05;99281.09;4414741;32;34372;-65
2023/04/07 05:10:07;;;;;;;7.53;6.15;;;;;;;9.90;46.45;99287.19;4416356;32;34572;-65
2023/04/07 05:12:36;;;;;;;9.15;4.35;;;;;;;9.81;46.65;99293.25;4417190;32;33854;-65
2023/04/07 05:15:05;;;;;;;14.55;6.03;;;;;;;9.82;46.07;99302.13;4417775;32;34375;-64
2023/04/07 05:17:33;;;;;;;13.15;6.28;;;;;;;10.06;46.00;99304.69;4418581;32;35328;-67
2023/04/07 05:20:01;;;;;;;6.10;5.50;;;;;;;10.39;44.84;99307.34;4419191;32;35089;-66
2023/04/07 05:22:29;;;;;;;6.93;4.68;;;;;;;10.41;44.67;99288.50;4418432;32;32907;-68
2023/04/07 05:24:57;;;;;;;6.00;3.40;;;;;;;10.15;45.36;99290.59;4421787;32;34114;-64
2023/04/07 05:27:26;;;;;;;10.57;7.32;;;;;;;9.68;46.81;99289.84;4422538;32;32171;-68
2023/04/07 05:29:54;;;;;;;6.62;5.10;;;;;;;9.52;46.92;99301.72;4419282;32;33635;-65
2023/04/07 05:32:23;;;;;;;9.98;6.53;;;;;;;9.49;47.42;99304.62;4415102;32;35160;-65
2023/04/07 05:34:51;;;;;;;12.63;10.13;;;;;;;9.83;46.54;99315.37;4413859;32;33899;-65
2023/04/07 05:37:19;;;;;;;11.40;7.12;;;;;;;9.81;46.26;99322.66;4417724;32;33649;-65
2023/04/07 05:39:47;;;;;;;12.15;6.15;;;;;;;10.26;45.32;99318.19;4418747;32;33352;-65
2023/04/07 05:42:15;;;;;;;10.95;6.78;;;;;;;10.46;44.90;99313.94;4418690;32;33874;-67
2023/04/07 05:44:43;;;;;;;8.90;5.32;;;;;;;10.22;45.73;99314.03;4420642;32;34242;-64
2023/04/07 05:47:11;;;;;;;6.82;4.35;;;;;;;9.95;46.07;99314.41;4418450;32;32316;-64
2023/04/07 05:49:44;;;;;;;10.85;6.55;;;;;;;10.11;46.02;99315.84;4420409;32;33585;-64
2023/04/07 05:52:13;;;;;;;11.63;8.57;;;;;;;10.48;45.49;99314.63;4426319;32;33892;-63
2023/04/07 05:54:41;;;;;;;6.47;4.30;;;;;;;10.38;45.78;99328.88;4419196;32;34863;-64
2023/04/07 05:57:10;;;;;;;9.38;5.95;;;;;;;10.30;45.97;99328.63;4419970;32;33461;-63
2023/04/07 05:59:40;;;;;;;10.30;5.25;;;;;;;9.80;46.65;99323.63;4412632;32;34653;-64
2023/04/07 06:02:08;;;;;;;14.48;6.47;;;;;;;10.09;45.92;99317.81;4415187;32;32986;-63
2023/04/07 06:04:38;;;;;;;6.32;5.65;;;;;;;10.00;46.44;99319.38;4418011;32;35188;-64
2023/04/07 06:07:05;;;;;;;6.50;5.30;;;;;;;9.96;46.45;99321.47;4410699;32;32600;-63
2023/04/07 06:09:33;;;;;;;8.73;5.45;;;;;;;9.91;47.39;99317.44;4418711;32;34698;-65
2023/04/07 06:12:03;;;;;;;13.52;6.37;;;;;;;9.81;47.26;99317.31;4418788;32;33018;-63
2023/04/07 06:14:32;;;;;;;7.75;5.55;;;;;;;9.56;47.26;99316.53;4424418;32;33181;-63
2023/04/07 06:17:00;;;;;;;9.63;6.32;;;;;;;9.96;46.63;99321.47;4412013;32;33468;-63
2023/04/07 06:19:28;;;;;;;7.62;4.93;;;;;;;10.12;46.73;99312.22;4416517;32;33650;-64
2023/04/07 06:21:55;;;;;;;6.20;3.37;;;;;;;10.17;46.03;99310.00;4416636;32;33076;-66
2023/04/07 06:24:24;;;;;;;9.73;6.20;;;;;;;10.16;46.27;99308.31;4419019;32;33076;-66
2023/04/07 06:26:51;;;;;;;10.27;6.50;;;;;;;10.33;45.69;99313.19;4417079;32;33390;-63
2023/04/07 06:29:20;;;;;;;5.37;4.87;;;;;;;10.37;45.61;99317.34;4423259;32;33565;-62
2023/04/07 06:31:48;;;;;;;11.23;5.93;;;;;;;9.87;46.65;99316.84;4416019;32;35144;-61
2023/04/07 06:34:18;;;;;;;12.00;7.35;;;;;;;10.06;46.36;99318.06;4419051;32;32996;-61
2023/04/07 06:36:45;;;;;;;5.97;4.00;;;;;;;10.05;46.70;99317.22;4412679;32;33292;-61
2023/04/07 06:39:13;;;;;;;9.23;6.87;;;;;;;10.24;46.11;99314.78;4413318;32;33729;-62
2023/04/07 06:41:42;;;;;;;8.77;4.95;;;;;;;9.71;47.50;99319.00;4418637;32;35079;-63
2023/04/07 06:44:10;;;;;;;8.02;5.40;;;;;;;9.88;47.31;99320.34;4425171;32;32964;-62
2023/04/07 06:46:38;;;;;;;16.08;6.53;;;;;;;9.61;47.77;99328.72;4412749;32;34715;-62
2023/04/07 06:49:05;;;;;;;11.82;7.55;;;;;;;9.75;47.12;99332.00;4417996;32;32644;-61
2023/04/07 06:51:33;;;;;;;8.95;6.15;;;;;;;10.33;45.73;99326.56;4416216;32;35123;-61
2023/04/07 06:54:00;;;;;;;7.18;5.40;;;;;;;9.66;48.26;99335.41;4423279;32;35170;-62
2023/04/07 06:56:28;;;;;;;9.70;6.40;;;;;;;9.44;48.16;99330.03;4417714;32;33672;-62
2023/04/07 06:58:55;;;;;;;10.68;7.97;;;;;;;9.73;48.54;99333.09;4414243;32;34856;-64
2023/04/07 07:01:23;;;;;;;13.20;7.37;;;;;;;10.04;46.26;99332.38;4418478;32;33596;-64
2023/04/07 07:03:51;;;;;;;8.15;5.47;;;;;;;10.17;46.85;99336.75;4416538;32;33903;-62
2023/04/07 07:06:19;;;;;;;9.38;4.72;;;;;;;10.76;44.53;99341.84;4420041;32;33425;-62
2023/04/07 07:08:46;;;;;;;23.35;5.12;;;;;;;10.48;45.75;99345.91;4414364;32;33564;-62
2023/04/07 07:11:14;;;;;;;6.70;4.53;;;;;;;10.40;46.11;99351.88;4418072;32;33076;-63
2023/04/07 07:13:41;;;;;;;5.53;3.50;;;;;;;10.44;46.02;99355.16;4417045;32;34733;-62
2023/04/07 07:16:09;;;;;;;20.52;7.37;;;;;;;11.00;44.23;99356.84;4420487;32;32356;-62
2023/04/07 07:18:37;;;;;;;12.73;9.30;;;;;;;11.21;43.89;99357.75;4426876;32;34074;-62
2023/04/07 07:21:04;;;;;;;11.52;7.22;;;;;;;11.17;43.45;99358.97;4418367;32;34297;-63
2023/04/07 07:23:33;;;;;;;9.18;6.10;;;;;;;10.85;44.84;99358.94;4421395;32;33903;-63
2023/04/07 07:26:00;;;;;;;14.80;7.03;;;;;;;10.76;44.71;99370.44;4424686;32;34515;-62
2023/04/07 07:28:28;;;;;;;12.50;7.72;;;;;;;10.71;44.83;99363.59;4423435;32;33654;-63
2023/04/07 07:30:56;;;;;;;5.95;4.57;;;;;;;10.96;44.18;99375.84;4419545;32;33399;-63
2023/04/07 07:33:23;;;;;;;4.90;4.25;;;;;;;11.24;44.09;99378.09;4421905;32;34998;-64
2023/04/07 07:35:51;;;;;;;7.72;4.53;;;;;;;11.02;44.47;99381.69;4420589;32;32574;-65
2023/04/07 07:38:19;;;;;;;8.60;6.28;;;;;;;11.12;44.11;99386.13;4409813;32;35244;-66
2023/04/07 07:40:46;;;;;;;8.90;5.43;;;;;;;11.36;43.06;99387.75;4420061;32;33884;-65
2023/04/07 07:43:14;;;;;;;10.20;5.65;;;;;;;11.22;44.78;99386.22;4418469;32;34267;-64
2023/04/07 07:45:41;;;;;;;8.77;3.58;;;;;;;11.49;44.30;99380.38;4420892;32;33678;-65
2023/04/07 07:48:09;;;;;;;10.25;7.25;;;;;;;11.39;45.59;99385.66;4421065;32;32295;-66
2023/04/07 07:50:36;;;;;;;13.90;6.15;;;;;;;11.48;45.34;99383.19;4420659;32;34001;-63
2023/04/07 07:53:04;;;;;;;10.98;7.43;;;;;;;11.42;45.44;99388.09;4419133;32;35086;-64
2023/04/07 07:55:32;;;;;;;11.32;6.43;;;;;;;11.07;46.25;99391.00;4420654;32;33513;-66
2023/04/07 07:57:59;;;;;;;12.05;5.20;;;;;;;11.29;46.22;99392.78;4419610;32;33562;-65
2023/04/07 08:00:27;;;;;;;10.13;5.85;;;;;;;11.57;45.69;99393.16;4418705;32;33710;-64
2023/04/07 08:02:55;;;;;;;11.10;7.43;;;;;;;11.81;44.87;99396.44;4423180;32;35226;-64
2023/04/07 08:05:23;;;;;;;10.10;6.57;;;;;;;11.57;44.25;99402.03;4419290;32;33430;-65
2023/04/07 08:07:51;;;;;;;12.00;5.93;;;;;;;11.49;44.79;99411.69;4426776;32;34718;-66
2023/04/07 08:10:22;;;;;;;12.48;7.45;;;;;;;11.20;45.51;99417.62;4420959;32;35069;-66
2023/04/07 08:12:49;;;;;;;10.60;7.60;;;;;;;11.01;45.83;99414.78;4421488;32;33808;-64
2023/04/07 08:15:17;;;;;;;10.98;7.35;;;;;;;10.80;46.66;99420.91;4418041;32;33299;-65
2023/04/07 08:17:45;;;;;;;17.50;4.65;;;;;;;10.35;47.86;99423.59;4420043;32;34229;-64
2023/04/07 08:20:12;;;;;;;14.35;8.93;;;;;;;10.38;47.95;99415.34;4418224;32;33748;-66
2023/04/07 08:22:40;;;;;;;14.87;5.47;;;;;;;10.59;46.64;99426.16;4420598;32;33527;-62
2023/04/07 08:25:08;;;;;;;12.10;7.82;;;;;;;10.60;46.51;99429.69;4418444;32;33737;-64
2023/04/07 08:27:35;;;;;;;11.65;7.78;;;;;;;11.01;45.64;99434.41;4418914;32;34144;-65
2023/04/07 08:30:07;;;;;;;13.00;6.22;;;;;;;10.39;47.42;99425.06;4419974;32;32859;-64
2023/04/07 08:32:40;;;;;;;12.88;9.23;;;;;;;10.33;47.42;99425.53;4421085;32;34839;-64
2023/04/07 08:35:08;;;;;;;7.80;3.70;;;;;;;10.11;48.24;99420.13;4420446;32;33411;-65
2023/04/07 08:37:36;;;;;;;8.20;4.57;;;;;;;10.72;46.38;99424.22;4419339;32;33513;-64
2023/04/07 08:40:05;;;;;;;9.20;6.70;;;;;;;11.14;45.23;99429.72;4422272;32;34342;-65
2023/04/07 08:42:33;;;;;;;11.93;7.93;;;;;;;11.10;45.42;99425.59;4420289;32;33972;-69
2023/04/07 08:45:05;;;;;;;7.20;6.03;;;;;;;11.24;44.92;99431.66;4419889;32;34475;-68
2023/04/07 08:47:34;;;;;;;9.75;7.85;;;;;;;10.95;45.92;99438.41;4420420;32;32104;-66
2023/04/07 08:50:07;;;;;;;13.18;7.18;;;;;;;11.15;45.55;99434.09;4418443;32;33726;-64
2023/04/07 08:52:50;;;;;;;16.10;7.18;;;;;;;11.33;45.55;99436.22;4415325;32;32830;-65
2023/04/07 08:55:18;;;;;;;8.02;5.40;;;;;;;11.42;45.72;99444.34;4417527;32;33507;-64
2023/04/07 08:57:46;;;;;;;7.97;5.57;;;;;;;11.35;46.25;99442.31;4421867;32;35619;-62
2023/04/07 09:00:14;;;;;;;10.48;6.75;;;;;;;11.07;46.09;99443.72;4417639;32;35227;-64
2023/04/07 09:02:47;;;;;;;10.82;6.35;;;;;;;10.88;46.94;99431.88;4419974;32;34922;-64
2023/04/07 09:05:15;;;;;;;9.23;7.28;;;;;;;10.87;47.47;99434.66;4414701;32;35159;-64
2023/04/07 09:07:43;;;;;;;6.93;4.85;;;;;;;11.02;47.26;99435.25;4415943;32;33996;-63
2023/04/07 09:10:10;;;;;;;14.30;7.53;;;;;;;11.27;46.63;99434.94;4416713;32;35163;-63
2023/04/07 09:12:38;;;;;;;9.77;6.28;;;;;;;11.02;47.18;99435.25;4417330;32;34000;-64
2023/04/07 09:15:07;;;;;;;8.18;6.47;;;;;;;11.15;47.25;99433.25;4420005;32;31796;-65
2023/04/07 09:17:35;;;;;;;8.32;5.75;;;;;;;11.39;47.07;99427.69;4419346;32;33884;-62
2023/04/07 09:20:03;;;;;;;8.63;6.90;;;;;;;11.40;47.39;99437.44;4413596;32;34047;-61
2023/04/07 09:22:37;;;;;;;18.48;9.15;;;;;;;11.11;47.20;99426.47;4418356;32;33639;-61
2023/04/07 09:25:26;;;;;;;11.20;7.85;;;;;;;11.52;45.92;99424.84;4417135;32;34502;-63
2023/04/07 09:27:58;;;;;;;10.23;6.28;;;;;;;11.23;46.79;99429.94;4416911;32;33880;-64
2023/04/07 09:30:27;;;;;;;11.10;7.10;;;;;;;11.47;46.33;99429.75;4418536;32;33952;-62
2023/04/07 09:32:55;;;;;;;13.55;5.95;;;;;;;11.00;47.31;99430.00;4419724;32;33931;-63
2023/04/07 09:35:23;;;;;;;10.93;4.22;;;;;;;11.37;47.00;99435.03;4421130;32;32220;-63
2023/04/07 09:38:09;;;;;;;12.27;5.07;;;;;;;11.96;45.22;99431.00;4425310;32;32483;-62
2023/04/07 09:40:37;;;;;;;9.75;7.10;;;;;;;12.13;44.83;99433.06;4420641;32;33757;-65
2023/04/07 09:43:05;;;;;;;10.45;8.45;;;;;;;11.96;46.28;99436.34;4420666;32;34459;-62
2023/04/07 09:45:34;;;;;;;7.82;6.10;;;;;;;12.04;45.05;99434.72;4418985;32;33514;-61
2023/04/07 09:48:09;;;;;;;13.73;9.73;;;;;;;11.92;45.52;99442.97;4419786;32;35073;-62
2023/04/07 09:50:40;;;;;;;13.45;6.65;;;;;;;11.87;44.75;99437.97;4419959;32;34417;-62
2023/04/07 09:53:08;;;;;;;10.60;5.75;;;;;;;11.95;44.86;99440.03;4415675;32;35474;-63
2023/04/07 09:55:37;;;;;;;10.63;6.82;;;;;;;11.65;45.30;99438.91;4420133;32;34792;-61
2023/04/07 09:58:05;;;;;;;10.18;6.45;;;;;;;11.70;44.96;99435.84;4412658;32;35043;-63
2023/04/07 10:00:34;;;;;;;9.18;5.70;;;;;;;12.09;44.20;99443.22;4417711;32;32515;-62
2023/04/07 10:03:02;;;;;;;16.95;8.07;;;;;;;12.04;44.49;99440.09;4427439;32;34965;-62
2023/04/07 10:05:32;;;;;;;12.02;7.40;;;;;;;12.27;43.80;99435.41;4420030;32;34523;-63
2023/04/07 10:08:00;;;;;;;10.18;6.28;;;;;;;12.08;44.09;99428.09;4420117;32;33459;-61
2023/04/07 10:10:29;;;;;;;8.20;5.68;;;;;;;12.17;43.73;99442.56;4429311;32;33513;-62
2023/04/07 10:12:57;;;;;;;10.85;8.32;;;;;;;12.35;43.03;99432.06;4414381;32;35245;-63
2023/04/07 10:15:25;;;;;;;9.32;6.50;;;;;;;12.26;43.38;99433.72;4421548;32;32368;-62
2023/04/07 10:17:55;;;;;;;14.13;8.57;;;;;;;12.16;43.93;99431.94;4424425;32;34191;-62
2023/04/07 10:20:23;;;;;;;10.02;8.48;;;;;;;12.40;42.58;99432.50;4418476;32;34570;-64
2023/04/07 10:22:52;;;;;;;16.17;7.68;;;;;;;12.41;42.31;99431.53;4421943;32;34224;-61
2023/04/07 10:25:23;;;;;;;7.20;6.05;;;;;;;12.24;43.19;99430.31;4417585;32;33653;-61
2023/04/07 10:28:04;;;;;;;12.27;8.10;;;;;;;11.31;46.69;99440.88;4412925;32;32289;-61
2023/04/07 10:30:32;;;;;;;8.05;5.70;;;;;;;12.00;45.21;99440.47;4422346;32;33949;-61
2023/04/07 10:33:00;;;;;;;10.95;6.78;;;;;;;12.40;43.21;99437.03;4430153;32;34136;-62
2023/04/07 10:35:28;;;;;;;11.32;7.07;;;;;;;12.52;42.48;99441.31;4420121;32;32411;-61
2023/04/07 10:38:12;;;;;;;10.02;5.43;;;;;;;12.68;43.05;99435.44;4420710;32;33288;-61
2023/04/07 10:40:41;;;;;;;7.53;6.37;;;;;;;12.55;42.86;99444.59;4418953;32;32895;-62
2023/04/07 10:43:10;;;;;;;15.70;7.55;;;;;;;12.05;43.80;99447.16;4419064;32;33792;-65
2023/04/07 10:45:47;;;;;;;11.70;7.50;;;;;;;12.59;42.56;99440.66;4421746;32;33583;-62
2023/04/07 10:48:16;;;;;;;6.30;4.10;;;;;;;12.15;43.59;99439.16;4419803;32;33554;-60
2023/04/07 10:51:09;;;;;;;7.47;5.37;;;;;;;12.49;43.39;99437.09;4420854;32;33822;-64
2023/04/07 10:53:37;;;;;;;12.60;9.05;;;;;;;12.44;42.86;99443.84;4419053;32;33681;-61
2023/04/07 10:56:04;;;;;;;12.05;9.00;;;;;;;12.49;42.65;99441.59;4422164;32;34511;-61
2023/04/07 10:58:32;;;;;;;7.57;6.18;;;;;;;12.78;42.38;99444.41;4422061;32;32355;-62
2023/04/07 11:01:06;;;;;;;10.27;6.18;;;;;;;13.14;41.37;99440.25;4418008;32;35457;-62
2023/04/07 11:03:35;;;;;;;8.88;6.62;;;;;;;13.21;41.46;99436.03;4416680;32;33885;-65
2023/04/07 11:06:07;;;;;;;9.63;6.15;;;;;;;13.15;40.75;99435.72;4420914;32;33176;-65
2023/04/07 11:08:42;;;;;;;8.75;5.78;;;;;;;12.85;40.95;99439.34;4415804;32;33950;-62
2023/04/07 11:11:11;;;;;;;8.38;5.82;;;;;;;12.43;42.35;99434.94;4416462;32;33894;-64
2023/04/07 11:13:47;;;;;;;11.38;7.25;;;;;;;12.84;41.66;99443.88;4418203;32;34954;-61
2023/04/07 11:16:17;;;;;;;9.43;6.55;;;;;;;12.54;42.00;99445.56;4417213;32;33373;-63
2023/04/07 11:18:46;;;;;;;12.65;8.20;;;;;;;12.50;41.95;99443.28;4414094;32;35018;-62
2023/04/07 11:21:18;;;;;;;9.13;7.20;;;;;;;12.12;42.07;99444.78;4410029;32;34504;-61
2023/04/07 11:23:46;;;;;;;7.03;5.37;;;;;;;12.06;42.41;99454.19;4411432;32;33202;-64
2023/04/07 11:26:15;;;;;;;8.15;3.90;;;;;;;12.69;41.35;99454.13;4417303;32;33617;-64
2023/04/07 11:28:47;;;;;;;15.50;6.62;;;;;;;12.98;40.21;99445.31;4413770;32;32715;-61
2023/04/07 11:31:26;;;;;;;8.57;5.50;;;;;;;12.59;41.53;99442.50;4418822;32;34806;-61
2023/04/07 11:34:01;;;;;;;6.93;4.93;;;;;;;13.07;40.95;99447.19;4412310;32;33825;-62
2023/04/07 11:36:38;;;;;;;8.88;4.10;;;;;;;13.02;41.27;99446.72;4414185;32;35157;-60
2023/04/07 11:39:20;;;;;;;8.00;6.07;;;;;;;11.06;44.24;99448.25;4412615;32;34171;-61
2023/04/07 11:41:49;;;;;;;11.85;6.07;;;;;;;11.99;42.49;99447.66;4410542;32;35241;-60